Temp: 14.1°C   Baro: 1027.2mb
  Wind: 0.0mph   Dir: W (281°)
  Rain: 0.0mm (0.0mm/hr)
  Solar: 0W/m2  Hum: 84%
 
Bath Spa Weather Station Historical Data
Daily Summary for June 11, 2021 Units:  Both    English   Metric
Daily Weekly Monthly Yearly Custom
  High: Low: Average:
Temperature: 70.2 °F /  21.2 °C 58.6 °F /  14.8 °C 63.5 °F /  17.5 °C
Dew Point: 61.4 °F /  16.3 °C 55.6 °F /  13.1 °C 59.4 °F /  15.2 °C
Humidity: 91% 70.2% 84%
Wind Speed: 12.6mph /  20.3km/h - 5.3mph /  8.5km/h
Wind Gust: 21mph /  33.8km/h - -
Wind- - West
Pressure: 30.18 in /  1021.9 hPa 30.11 in /  1019.5 hPa -
Precipitation: 0.00 in /  0 mm    
Historical Graphs
 
 
Tabular Data for June 11, 2021
Time Temperature Dew Point Pressure Wind Wind Speed Wind Gust Humidity Rainfall Rate (Hourly) solar
00:04 62.4 °F /  16.9 °C 60.6 °F /  15.9 °C 30.12in /  1019.9hPa WSW 2mph /  3.2km/h 4mph /  6.4km/h 91% 0.00in /  0mm 0 W/m2
00:09 62.4 °F /  16.9 °C 60.6 °F /  15.9 °C 30.12in /  1019.9hPa Calm   3mph /  4.8km/h 91% 0.00in /  0mm 0 W/m2
00:14 62.3 °F /  16.8 °C 60.5 °F /  15.8 °C 30.12in /  1019.9hPa WSW 0.9mph /  1.4km/h 4mph /  6.4km/h 91% 0.00in /  0mm 0 W/m2
00:19 62.2 °F /  16.8 °C 60.4 °F /  15.8 °C 30.12in /  1019.9hPa WSW 2.1mph /  3.4km/h 4mph /  6.4km/h 91% 0.00in /  0mm 0 W/m2
00:24 62.2 °F /  16.8 °C 60.4 °F /  15.8 °C 30.12in /  1019.9hPa WSW 0.9mph /  1.4km/h 4mph /  6.4km/h 91% 0.00in /  0mm 0 W/m2
00:29 62.2 °F /  16.8 °C 60.4 °F /  15.8 °C 30.12in /  1019.9hPa Calm   4mph /  6.4km/h 91% 0.00in /  0mm 0 W/m2
00:34 62.2 °F /  16.8 °C 60.4 °F /  15.8 °C 30.12in /  1019.9hPa WSW 0.8mph /  1.3km/h 4mph /  6.4km/h 91% 0.00in /  0mm 0 W/m2
00:39 62.2 °F /  16.8 °C 60.4 °F /  15.8 °C 30.12in /  1019.9hPa Calm   3mph /  4.8km/h 91% 0.00in /  0mm 0 W/m2
00:44 62.2 °F /  16.8 °C 60.4 °F /  15.8 °C 30.12in /  1019.9hPa WSW 0.4mph /  0.6km/h 3mph /  4.8km/h 91% 0.00in /  0mm 0 W/m2
00:49 62.4 °F /  16.9 °C 60.6 °F /  15.9 °C 30.12in /  1019.9hPa WSW 1.8mph /  2.9km/h 5mph /  8km/h 91% 0.00in /  0mm 0 W/m2
00:54 62.4 °F /  16.9 °C 60.6 °F /  15.9 °C 30.12in /  1019.9hPa WSW 2mph /  3.2km/h 4mph /  6.4km/h 91% 0.00in /  0mm 0 W/m2
00:59 62.4 °F /  16.9 °C 60.6 °F /  15.9 °C 30.12in /  1019.9hPa WSW 1.2mph /  1.9km/h 3mph /  4.8km/h 91% 0.00in /  0mm 0 W/m2
01:04 62.4 °F /  16.9 °C 60.6 °F /  15.9 °C 30.12in /  1019.9hPa WSW 1.6mph /  2.6km/h 4mph /  6.4km/h 91% 0.00in /  0mm 0 W/m2
01:09 62.4 °F /  16.9 °C 60.6 °F /  15.9 °C 30.12in /  1019.9hPa WSW 1.6mph /  2.6km/h 4mph /  6.4km/h 91% 0.00in /  0mm 0 W/m2
01:14 62.4 °F /  16.9 °C 60.6 °F /  15.9 °C 30.12in /  1019.9hPa WSW 2.2mph /  3.5km/h 6mph /  9.7km/h 91% 0.00in /  0mm 0 W/m2
01:19 62.4 °F /  16.9 °C 60.6 °F /  15.9 °C 30.12in /  1019.9hPa WSW 0.9mph /  1.4km/h 5mph /  8km/h 91% 0.00in /  0mm 0 W/m2
01:24 62.4 °F /  16.9 °C 60.6 °F /  15.9 °C 30.12in /  1019.9hPa WSW 1.2mph /  1.9km/h 5mph /  8km/h 91% 0.00in /  0mm 0 W/m2
01:29 62.4 °F /  16.9 °C 60.6 °F /  15.9 °C 30.12in /  1019.9hPa WSW 2.1mph /  3.4km/h 6mph /  9.7km/h 91% 0.00in /  0mm 0 W/m2
01:34 62.4 °F /  16.9 °C 60.6 °F /  15.9 °C 30.12in /  1019.9hPa WSW 1.6mph /  2.6km/h 4mph /  6.4km/h 91% 0.00in /  0mm 0 W/m2
01:39 62.5 °F /  16.9 °C 60.7 °F /  15.9 °C 30.12in /  1019.9hPa WSW 0.4mph /  0.6km/h 3mph /  4.8km/h 91% 0.00in /  0mm 0 W/m2
01:44 62.5 °F /  16.9 °C 60.7 °F /  15.9 °C 30.12in /  1019.9hPa WSW 1mph /  1.6km/h 4mph /  6.4km/h 91% 0.00in /  0mm 0 W/m2
01:49 62.5 °F /  16.9 °C 60.7 °F /  15.9 °C 30.12in /  1019.9hPa WSW 1.2mph /  1.9km/h 3mph /  4.8km/h 91% 0.00in /  0mm 0 W/m2
01:54 62.4 °F /  16.9 °C 60.6 °F /  15.9 °C 30.12in /  1019.9hPa WSW 0.4mph /  0.6km/h 4mph /  6.4km/h 91% 0.00in /  0mm 0 W/m2
01:59 62.6 °F /  17 °C 60.8 °F /  16 °C 30.12in /  1019.9hPa WSW 1mph /  1.6km/h 4mph /  6.4km/h 91% 0.00in /  0mm 0 W/m2
02:04 62.7 °F /  17.1 °C 60.8 °F /  16 °C 30.12in /  1019.9hPa WSW 0.2mph /  0.3km/h 4mph /  6.4km/h 91% 0.00in /  0mm 0 W/m2
02:09 62.6 °F /  17 °C 60.8 °F /  16 °C 30.12in /  1019.9hPa WSW 0.4mph /  0.6km/h 3mph /  4.8km/h 91% 0.00in /  0mm 0 W/m2
02:14 62.6 °F /  17 °C 60.8 °F /  16 °C 30.12in /  1019.9hPa WSW 1.2mph /  1.9km/h 4mph /  6.4km/h 91% 0.00in /  0mm 0 W/m2
02:19 62.6 °F /  17 °C 60.8 °F /  16 °C 30.12in /  1019.9hPa WSW 1mph /  1.6km/h 4mph /  6.4km/h 91% 0.00in /  0mm 0 W/m2
02:24 62.6 °F /  17 °C 60.8 °F /  16 °C 30.12in /  1019.9hPa WSW 1mph /  1.6km/h 4mph /  6.4km/h 91% 0.00in /  0mm 0 W/m2
02:29 62.7 °F /  17.1 °C 60.9 °F /  16.1 °C 30.12in /  1019.9hPa Calm   1mph /  1.6km/h 91% 0.00in /  0mm 0 W/m2
02:34 62.7 °F /  17.1 °C 60.9 °F /  16.1 °C 30.12in /  1019.9hPa Calm   1mph /  1.6km/h 91% 0.00in /  0mm 0 W/m2
02:39 62.6 °F /  17 °C 60.8 °F /  16 °C 30.11in /  1019.5hPa WSW 0.2mph /  0.3km/h 1mph /  1.6km/h 91% 0.00in /  0mm 0 W/m2
02:44 62.6 °F /  17 °C 60.8 °F /  16 °C 30.11in /  1019.5hPa Calm     91% 0.00in /  0mm 0 W/m2
02:49 62.4 °F /  16.9 °C 60.6 °F /  15.9 °C 30.11in /  1019.5hPa Calm     91% 0.00in /  0mm 0 W/m2
02:54 62.5 °F /  16.9 °C 60.7 °F /  15.9 °C 30.11in /  1019.5hPa Calm     91% 0.00in /  0mm 0 W/m2
02:59 62.4 °F /  16.9 °C 60.6 °F /  15.9 °C 30.11in /  1019.5hPa WSW 0.4mph /  0.6km/h 2mph /  3.2km/h 91% 0.00in /  0mm 0 W/m2
03:04 62.5 °F /  16.9 °C 60.7 °F /  15.9 °C 30.11in /  1019.5hPa WSW 0.2mph /  0.3km/h 3mph /  4.8km/h 91% 0.00in /  0mm 0 W/m2
03:09 62.4 °F /  16.9 °C 60.6 °F /  15.9 °C 30.11in /  1019.5hPa WSW 1.2mph /  1.9km/h 4mph /  6.4km/h 91% 0.00in /  0mm 0 W/m2
03:14 62.4 °F /  16.9 °C 60.6 °F /  15.9 °C 30.11in /  1019.5hPa WSW 2.1mph /  3.4km/h 5mph /  8km/h 91% 0.00in /  0mm 0 W/m2
03:19 62.4 °F /  16.9 °C 60.6 °F /  15.9 °C 30.12in /  1019.9hPa WSW 3.1mph /  5km/h 5mph /  8km/h 91% 0.00in /  0mm 0 W/m2
03:24 62.4 °F /  16.9 °C 60.6 °F /  15.9 °C 30.11in /  1019.5hPa WSW 0.5mph /  0.8km/h 4mph /  6.4km/h 91% 0.00in /  0mm 0 W/m2
03:29 62.4 °F /  16.9 °C 60.6 °F /  15.9 °C 30.11in /  1019.5hPa WSW 2.2mph /  3.5km/h 5mph /  8km/h 91% 0.00in /  0mm 0 W/m2
03:34 62.2 °F /  16.8 °C 60.4 °F /  15.8 °C 30.11in /  1019.5hPa WSW 1.6mph /  2.6km/h 4mph /  6.4km/h 91% 0.00in /  0mm 0 W/m2
03:39 62.2 °F /  16.8 °C 60.4 °F /  15.8 °C 30.11in /  1019.5hPa WSW 1.7mph /  2.7km/h 4mph /  6.4km/h 91% 0.00in /  0mm 0 W/m2
03:44 62.2 °F /  16.8 °C 60.4 °F /  15.8 °C 30.11in /  1019.5hPa WSW 1.7mph /  2.7km/h 4mph /  6.4km/h 91% 0.00in /  0mm 0 W/m2
03:49 62.2 °F /  16.8 °C 60.4 °F /  15.8 °C 30.11in /  1019.5hPa WSW 0.8mph /  1.3km/h 3mph /  4.8km/h 91% 0.00in /  0mm 0 W/m2
03:54 62.2 °F /  16.8 °C 60.4 °F /  15.8 °C 30.11in /  1019.5hPa WSW 1mph /  1.6km/h 3mph /  4.8km/h 91% 0.00in /  0mm 0 W/m2
03:59 62.2 °F /  16.8 °C 60.4 °F /  15.8 °C 30.11in /  1019.5hPa WSW 1mph /  1.6km/h 3mph /  4.8km/h 91% 0.00in /  0mm 0 W/m2
04:04 62.2 °F /  16.8 °C 60.4 °F /  15.8 °C 30.11in /  1019.5hPa WSW 2mph /  3.2km/h 5mph /  8km/h 91% 0.00in /  0mm 0 W/m2
04:09 62.2 °F /  16.8 °C 60.4 °F /  15.8 °C 30.11in /  1019.5hPa WSW 2.7mph /  4.3km/h 5mph /  8km/h 91% 0.00in /  0mm 0 W/m2
04:14 62.2 °F /  16.8 °C 60.4 °F /  15.8 °C 30.11in /  1019.5hPa WSW 3mph /  4.8km/h 5mph /  8km/h 91% 0.00in /  0mm 0 W/m2
04:19 62.2 °F /  16.8 °C 60.4 °F /  15.8 °C 30.11in /  1019.5hPa WSW 3.6mph /  5.8km/h 10mph /  16.1km/h 91% 0.00in /  0mm 0 W/m2
04:24 62.2 °F /  16.8 °C 60.4 °F /  15.8 °C 30.11in /  1019.5hPa WSW 5.6mph /  9km/h 10mph /  16.1km/h 91% 0.00in /  0mm 0 W/m2
04:29 62.1 °F /  16.7 °C 60.3 °F /  15.7 °C 30.11in /  1019.5hPa WSW 3.2mph /  5.1km/h 8mph /  12.9km/h 91% 0.00in /  0mm 0 W/m2
04:34 62.1 °F /  16.7 °C 60.3 °F /  15.7 °C 30.11in /  1019.5hPa WSW 3.5mph /  5.6km/h 7mph /  11.3km/h 91% 0.00in /  0mm 0 W/m2
04:39 62.1 °F /  16.7 °C 60.3 °F /  15.7 °C 30.11in /  1019.5hPa WSW 1.4mph /  2.3km/h 7mph /  11.3km/h 91% 0.00in /  0mm 0 W/m2
04:44 62.1 °F /  16.7 °C 60.3 °F /  15.7 °C 30.11in /  1019.5hPa WSW 0.5mph /  0.8km/h 2mph /  3.2km/h 91% 0.00in /  0mm 0 W/m2
04:49 62.1 °F /  16.7 °C 60 °F /  15.6 °C 30.11in /  1019.5hPa WSW 1.6mph /  2.6km/h 4mph /  6.4km/h 90.2% 0.00in /  0mm 0 W/m2
04:54 62.1 °F /  16.7 °C 59.9 °F /  15.5 °C 30.11in /  1019.5hPa WSW 0.9mph /  1.4km/h 3mph /  4.8km/h 90% 0.00in /  0mm 0 W/m2
04:59 61.9 °F /  16.6 °C 59.7 °F /  15.4 °C 30.11in /  1019.5hPa WSW 3.6mph /  5.8km/h 6mph /  9.7km/h 90% 0.00in /  0mm 0 W/m2
05:04 61.9 °F /  16.6 °C 59.7 °F /  15.4 °C 30.11in /  1019.5hPa WSW 1mph /  1.6km/h 4mph /  6.4km/h 90% 0.00in /  0mm 0 W/m2
05:09 61.9 °F /  16.6 °C 59.7 °F /  15.4 °C 30.11in /  1019.5hPa WSW 2.5mph /  4km/h 7mph /  11.3km/h 90% 0.00in /  0mm 5 W/m2
05:14 61.9 °F /  16.6 °C 59.7 °F /  15.4 °C 30.11in /  1019.5hPa WSW 0.8mph /  1.3km/h 4mph /  6.4km/h 90% 0.00in /  0mm 7 W/m2
05:19 61.8 °F /  16.6 °C 59.6 °F /  15.3 °C 30.11in /  1019.5hPa WSW 2.3mph /  3.7km/h 4mph /  6.4km/h 90% 0.00in /  0mm 7 W/m2
05:24 61.7 °F /  16.5 °C 59.5 °F /  15.3 °C 30.11in /  1019.5hPa WSW 2.5mph /  4km/h 5mph /  8km/h 90% 0.00in /  0mm 11 W/m2
05:29 61.6 °F /  16.4 °C 59.4 °F /  15.2 °C 30.11in /  1019.5hPa WSW 2.5mph /  4km/h 5mph /  8km/h 90% 0.00in /  0mm 12 W/m2
05:34 61.6 °F /  16.4 °C 59.3 °F /  15.2 °C 30.11in /  1019.5hPa WSW 1.3mph /  2.1km/h 5mph /  8km/h 89% 0.00in /  0mm 14 W/m2
05:39 61.7 °F /  16.5 °C 59.4 °F /  15.2 °C 30.11in /  1019.5hPa WSW 2.9mph /  4.7km/h 6mph /  9.7km/h 89% 0.00in /  0mm 19 W/m2
05:44 61.8 °F /  16.6 °C 59.4 °F /  15.2 °C 30.11in /  1019.5hPa WSW 2.7mph /  4.3km/h 7mph /  11.3km/h 89% 0.00in /  0mm 21 W/m2
05:49 61.9 °F /  16.6 °C 59.5 °F /  15.3 °C 30.11in /  1019.5hPa WSW 2.9mph /  4.7km/h 8mph /  12.9km/h 89% 0.00in /  0mm 21 W/m2
05:54 61.9 °F /  16.6 °C 59.5 °F /  15.3 °C 30.12in /  1019.9hPa WSW 2.6mph /  4.2km/h 7mph /  11.3km/h 89% 0.00in /  0mm 19 W/m2
05:59 62 °F /  16.7 °C 59.6 °F /  15.3 °C 30.12in /  1019.9hPa WSW 3.8mph /  6.1km/h 8mph /  12.9km/h 89% 0.00in /  0mm 21 W/m2
06:04 62.1 °F /  16.7 °C 59.5 °F /  15.3 °C 30.12in /  1019.9hPa West 3.7mph /  6km/h 8mph /  12.9km/h 88.2% 0.00in /  0mm 33 W/m2
06:09 62.1 °F /  16.7 °C 59.4 °F /  15.2 °C 30.12in /  1019.9hPa WSW 4.1mph /  6.6km/h 11mph /  17.7km/h 88% 0.00in /  0mm 37 W/m2
06:14 62.1 °F /  16.7 °C 59.4 °F /  15.2 °C 30.12in /  1019.9hPa WSW 3.8mph /  6.1km/h 7mph /  11.3km/h 88% 0.00in /  0mm 54 W/m2
06:18 62.1 °F /  16.7 °C 59.4 °F /  15.2 °C 30.12in /  1019.9hPa West 5.5mph /  8.9km/h 9mph /  14.5km/h 88% 0.00in /  0mm 58 W/m2
06:24 62.1 °F /  16.7 °C 59.4 °F /  15.2 °C 30.12in /  1019.9hPa WSW 3.9mph /  6.3km/h 9mph /  14.5km/h 88% 0.00in /  0mm 60 W/m2
06:29 62.2 °F /  16.8 °C 59.5 °F /  15.3 °C 30.12in /  1019.9hPa WSW 2.3mph /  3.7km/h 6mph /  9.7km/h 88% 0.00in /  0mm 77 W/m2
06:34 62.2 °F /  16.8 °C 59.5 °F /  15.3 °C 30.12in /  1019.9hPa WSW 3.1mph /  5km/h 7mph /  11.3km/h 88% 0.00in /  0mm 77 W/m2
06:39 62.2 °F /  16.8 °C 59.5 °F /  15.3 °C 30.12in /  1019.9hPa WSW 3.7mph /  6km/h 9mph /  14.5km/h 88% 0.00in /  0mm 63 W/m2
06:44 62.2 °F /  16.8 °C 59.5 °F /  15.3 °C 30.12in /  1019.9hPa West 5.9mph /  9.5km/h 9mph /  14.5km/h 88% 0.00in /  0mm 65 W/m2
06:49 62.2 °F /  16.8 °C 59.5 °F /  15.3 °C 30.12in /  1019.9hPa WSW 2.5mph /  4km/h 9mph /  14.5km/h 88% 0.00in /  0mm 81 W/m2
06:54 62.4 °F /  16.9 °C 59.7 °F /  15.4 °C 30.13in /  1020.2hPa West 3.8mph /  6.1km/h 8mph /  12.9km/h 88% 0.00in /  0mm 83 W/m2
06:59 62.4 °F /  16.9 °C 59.7 °F /  15.4 °C 30.13in /  1020.2hPa West 5.3mph /  8.5km/h 9mph /  14.5km/h 88% 0.00in /  0mm 74 W/m2
07:04 62.4 °F /  16.9 °C 59.7 °F /  15.4 °C 30.12in /  1019.9hPa West 3.6mph /  5.8km/h 8mph /  12.9km/h 88% 0.00in /  0mm 79 W/m2
07:09 62.4 °F /  16.9 °C 59.4 °F /  15.2 °C 30.13in /  1020.2hPa West 4.3mph /  6.9km/h 8mph /  12.9km/h 87% 0.00in /  0mm 88 W/m2
07:14 62.5 °F /  16.9 °C 59.5 °F /  15.3 °C 30.13in /  1020.2hPa West 2.1mph /  3.4km/h 6mph /  9.7km/h 87% 0.00in /  0mm 91 W/m2
07:19 62.6 °F /  17 °C 59.5 °F /  15.3 °C 30.13in /  1020.2hPa West 3.8mph /  6.1km/h 7mph /  11.3km/h 87% 0.00in /  0mm 77 W/m2
07:24 62.5 °F /  16.9 °C 59.5 °F /  15.3 °C 30.13in /  1020.2hPa West 4.1mph /  6.6km/h 7mph /  11.3km/h 87% 0.00in /  0mm 60 W/m2
07:29 62.4 °F /  16.9 °C 59.4 °F /  15.2 °C 30.13in /  1020.2hPa West 3.7mph /  6km/h 9mph /  14.5km/h 87% 0.00in /  0mm 46 W/m2
07:34 62.4 °F /  16.9 °C 59.4 °F /  15.2 °C 30.13in /  1020.2hPa WNW 7mph /  11.3km/h 12mph /  19.3km/h 87% 0.00in /  0mm 40 W/m2
07:39 62.3 °F /  16.8 °C 59.3 °F /  15.2 °C 30.13in /  1020.2hPa West 8.6mph /  13.8km/h 12mph /  19.3km/h 87% 0.00in /  0mm 39 W/m2
07:44 62.2 °F /  16.8 °C 59.2 °F /  15.1 °C 30.13in /  1020.2hPa West 6.6mph /  10.6km/h 14mph /  22.5km/h 87% 0.00in /  0mm 51 W/m2
07:49 62.1 °F /  16.7 °C 58.9 °F /  14.9 °C 30.14in /  1020.5hPa WNW 7.2mph /  11.6km/h 13mph /  20.9km/h 86.8% 0.00in /  0mm 58 W/m2
07:54 62 °F /  16.7 °C 58.9 °F /  14.9 °C 30.13in /  1020.2hPa West 6.2mph /  10km/h 11mph /  17.7km/h 87% 0.00in /  0mm 111 W/m2
07:59 62 °F /  16.7 °C 58.8 °F /  14.9 °C 30.13in /  1020.2hPa WNW 5.7mph /  9.2km/h 10mph /  16.1km/h 86.6% 0.00in /  0mm 100 W/m2
08:04 62.1 °F /  16.7 °C 58.6 °F /  14.8 °C 30.13in /  1020.2hPa West 4.9mph /  7.9km/h 9mph /  14.5km/h 86% 0.00in /  0mm 104 W/m2
08:09 62.1 °F /  16.7 °C 58.6 °F /  14.8 °C 30.13in /  1020.2hPa West 5mph /  8km/h 11mph /  17.7km/h 86% 0.00in /  0mm 100 W/m2
08:14 62.1 °F /  16.7 °C 58.7 °F /  14.8 °C 30.14in /  1020.5hPa West 5.3mph /  8.5km/h 8mph /  12.9km/h 86% 0.00in /  0mm 142 W/m2
08:19 62.3 °F /  16.8 °C 58.9 °F /  14.9 °C 30.14in /  1020.5hPa WSW 5.6mph /  9km/h 10mph /  16.1km/h 86% 0.00in /  0mm 172 W/m2
08:24 62.4 °F /  16.9 °C 58.8 °F /  14.9 °C 30.14in /  1020.5hPa West 5.8mph /  9.3km/h 10mph /  16.1km/h 85.2% 0.00in /  0mm 190 W/m2
08:29 62.8 °F /  17.1 °C 59 °F /  15 °C 30.14in /  1020.5hPa West 4.7mph /  7.6km/h 11mph /  17.7km/h 85% 0.00in /  0mm 204 W/m2
08:34 62.9 °F /  17.2 °C 58.9 °F /  14.9 °C 30.14in /  1020.5hPa West 4.8mph /  7.7km/h 11mph /  17.7km/h 84.2% 0.00in /  0mm 213 W/m2
08:39 63.1 °F /  17.3 °C 59.2 °F /  15.1 °C 30.14in /  1020.5hPa WSW 6mph /  9.7km/h 8mph /  12.9km/h 84% 0.00in /  0mm 206 W/m2
08:44 63.3 °F /  17.4 °C 59 °F /  15 °C 30.14in /  1020.5hPa West 7mph /  11.3km/h 13mph /  20.9km/h 83% 0.00in /  0mm 200 W/m2
08:49 63.4 °F /  17.4 °C 58.8 °F /  14.9 °C 30.14in /  1020.5hPa West 5.6mph /  9km/h 11mph /  17.7km/h 82.2% 0.00in /  0mm 155 W/m2
08:54 63.6 °F /  17.6 °C 58.9 °F /  14.9 °C 30.14in /  1020.5hPa WSW 4.7mph /  7.6km/h 10mph /  16.1km/h 82% 0.00in /  0mm 141 W/m2
08:59 63.6 °F /  17.6 °C 58.9 °F /  14.9 °C 30.14in /  1020.5hPa West 8mph /  12.9km/h 12mph /  19.3km/h 82% 0.00in /  0mm 167 W/m2
09:04 63.2 °F /  17.3 °C 58.6 °F /  14.8 °C 30.14in /  1020.5hPa WNW 6.6mph /  10.6km/h 12mph /  19.3km/h 82% 0.00in /  0mm 218 W/m2
09:09 63 °F /  17.2 °C 58.7 °F /  14.8 °C 30.14in /  1020.5hPa West 7mph /  11.3km/h 13mph /  20.9km/h 83% 0.00in /  0mm 199 W/m2
09:14 63 °F /  17.2 °C 58.6 °F /  14.8 °C 30.14in /  1020.5hPa West 7.8mph /  12.6km/h 13mph /  20.9km/h 83% 0.00in /  0mm 288 W/m2
09:19 62.9 °F /  17.2 °C 58.6 °F /  14.8 °C 30.15in /  1020.9hPa WNW 8mph /  12.9km/h 13mph /  20.9km/h 83% 0.00in /  0mm 251 W/m2
09:24 63 °F /  17.2 °C 59 °F /  15 °C 30.15in /  1020.9hPa West 7.2mph /  11.6km/h 13mph /  20.9km/h 84% 0.00in /  0mm 171 W/m2
09:29 62.8 °F /  17.1 °C 58.8 °F /  14.9 °C 30.15in /  1020.9hPa WNW 7.2mph /  11.6km/h 15mph /  24.1km/h 84.2% 0.00in /  0mm 218 W/m2
09:34 62.3 °F /  16.8 °C 58.7 °F /  14.8 °C 30.15in /  1020.9hPa WNW 6.6mph /  10.6km/h 15mph /  24.1km/h 85% 0.00in /  0mm 181 W/m2
09:39 61.8 °F /  16.6 °C 58.4 °F /  14.7 °C 30.16in /  1021.2hPa WNW 8.2mph /  13.2km/h 13mph /  20.9km/h 85.8% 0.00in /  0mm 221 W/m2
09:44 61.4 °F /  16.3 °C 58.3 °F /  14.6 °C 30.16in /  1021.2hPa WNW 8.4mph /  13.5km/h 16mph /  25.7km/h 86.8% 0.00in /  0mm 227 W/m2
09:49 61.2 °F /  16.2 °C 58.2 °F /  14.6 °C 30.15in /  1020.9hPa WNW 7.1mph /  11.4km/h 14mph /  22.5km/h 87.2% 0.00in /  0mm 271 W/m2
09:54 61.3 °F /  16.3 °C 58.6 °F /  14.8 °C 30.15in /  1020.9hPa West 6.4mph /  10.3km/h 13mph /  20.9km/h 88% 0.00in /  0mm 452 W/m2
09:59 61.7 °F /  16.5 °C 58.8 °F /  14.9 °C 30.15in /  1020.9hPa West 8.8mph /  14.2km/h 15mph /  24.1km/h 87.6% 0.00in /  0mm 455 W/m2
10:04 62.2 °F /  16.8 °C 59.2 °F /  15.1 °C 30.15in /  1020.9hPa West 5.9mph /  9.5km/h 10mph /  16.1km/h 87% 0.00in /  0mm 431 W/m2
10:09 62.7 °F /  17.1 °C 59.3 °F /  15.2 °C 30.15in /  1020.9hPa West 5.1mph /  8.2km/h 11mph /  17.7km/h 86% 0.00in /  0mm 522 W/m2
10:14 63.2 °F /  17.3 °C 59.5 °F /  15.3 °C 30.14in /  1020.5hPa West 6.4mph /  10.3km/h 12mph /  19.3km/h 85.2% 0.00in /  0mm 621 W/m2
10:19 63.7 °F /  17.6 °C 59.6 °F /  15.3 °C 30.14in /  1020.5hPa West 6.6mph /  10.6km/h 12mph /  19.3km/h 83.8% 0.00in /  0mm 494 W/m2
10:24 63.8 °F /  17.7 °C 59.4 °F /  15.2 °C 30.14in /  1020.5hPa WSW 6.5mph /  10.5km/h 12mph /  19.3km/h 83% 0.00in /  0mm 480 W/m2
10:29 64 °F /  17.8 °C 59.6 °F /  15.3 °C 30.14in /  1020.5hPa WSW 7.1mph /  11.4km/h 12mph /  19.3km/h 83% 0.00in /  0mm 417 W/m2
10:34 64.1 °F /  17.8 °C 59.5 °F /  15.3 °C 30.14in /  1020.5hPa WSW 7.4mph /  11.9km/h 15mph /  24.1km/h 82% 0.00in /  0mm 387 W/m2
10:39 64 °F /  17.8 °C 59 °F /  15 °C 30.14in /  1020.5hPa West 7.5mph /  12.1km/h 15mph /  24.1km/h 81% 0.00in /  0mm 381 W/m2
10:44 64.4 °F /  18 °C 59.4 °F /  15.2 °C 30.14in /  1020.5hPa WSW 5.6mph /  9km/h 12mph /  19.3km/h 81% 0.00in /  0mm 299 W/m2
10:49 64.5 °F /  18.1 °C 59.2 °F /  15.1 °C 30.14in /  1020.5hPa West 4.8mph /  7.7km/h 12mph /  19.3km/h 80.2% 0.00in /  0mm 292 W/m2
10:54 64.6 °F /  18.1 °C 59.3 °F /  15.2 °C 30.14in /  1020.5hPa West 6.2mph /  10km/h 12mph /  19.3km/h 80.4% 0.00in /  0mm 260 W/m2
10:59 64.5 °F /  18.1 °C 59.5 °F /  15.3 °C 30.14in /  1020.5hPa WNW 6.3mph /  10.1km/h 10mph /  16.1km/h 81% 0.00in /  0mm 378 W/m2
11:04 64.2 °F /  17.9 °C 59.2 °F /  15.1 °C 30.14in /  1020.5hPa WNW 7.2mph /  11.6km/h 11mph /  17.7km/h 81% 0.00in /  0mm 443 W/m2
11:09 64.4 °F /  18 °C 59.4 °F /  15.2 °C 30.14in /  1020.5hPa West 7.2mph /  11.6km/h 14mph /  22.5km/h 81% 0.00in /  0mm 446 W/m2
11:14 64.7 °F /  18.2 °C 59.4 °F /  15.2 °C 30.14in /  1020.5hPa West 6.6mph /  10.6km/h 13mph /  20.9km/h 80.2% 0.00in /  0mm 483 W/m2
11:19 64.8 °F /  18.2 °C 59.4 °F /  15.2 °C 30.14in /  1020.5hPa WNW 9.4mph /  15.1km/h 15mph /  24.1km/h 80% 0.00in /  0mm 443 W/m2
11:24 65 °F /  18.3 °C 59.5 °F /  15.3 °C 30.14in /  1020.5hPa West 5.3mph /  8.5km/h 12mph /  19.3km/h 79.8% 0.00in /  0mm 939 W/m2
11:29 65.6 °F /  18.7 °C 60 °F /  15.6 °C 30.14in /  1020.5hPa West 7.6mph /  12.2km/h 12mph /  19.3km/h 79.5% 0.00in /  0mm 436 W/m2
11:34 65.8 °F /  18.8 °C 59.6 °F /  15.3 °C 30.13in /  1020.2hPa WSW 8.3mph /  13.4km/h 14mph /  22.5km/h 78% 0.00in /  0mm 459 W/m2
11:39 66.2 °F /  19 °C 60.3 °F /  15.7 °C 30.13in /  1020.2hPa WSW 3.7mph /  6km/h 12mph /  19.3km/h 78.6% 0.00in /  0mm 715 W/m2
11:44 66.8 °F /  19.3 °C 60.4 °F /  15.8 °C 30.13in /  1020.2hPa West 7mph /  11.3km/h 12mph /  19.3km/h 77.2% 0.00in /  0mm 538 W/m2
11:49 66.6 °F /  19.2 °C 60.1 °F /  15.6 °C 30.12in /  1019.9hPa West 6.2mph /  10km/h 11mph /  17.7km/h 77% 0.00in /  0mm 438 W/m2
11:54 66.8 °F /  19.3 °C 60.5 °F /  15.8 °C 30.12in /  1019.9hPa WSW 4.8mph /  7.7km/h 9mph /  14.5km/h 77.8% 0.00in /  0mm 381 W/m2
11:59 67 °F /  19.4 °C 60.4 °F /  15.8 °C 30.12in /  1019.9hPa West 5.8mph /  9.3km/h 11mph /  17.7km/h 77% 0.00in /  0mm 299 W/m2
12:04 66.9 °F /  19.4 °C 60.4 °F /  15.8 °C 30.13in /  1020.2hPa WSW 4.3mph /  6.9km/h 9mph /  14.5km/h 77.4% 0.00in /  0mm 366 W/m2
12:09 67.4 °F /  19.7 °C 60.7 °F /  15.9 °C 30.13in /  1020.2hPa West 5.6mph /  9km/h 12mph /  19.3km/h 77% 0.00in /  0mm 636 W/m2
12:14 67.6 °F /  19.8 °C 60.6 °F /  15.9 °C 30.13in /  1020.2hPa WNW 7.6mph /  12.2km/h 12mph /  19.3km/h 76% 0.00in /  0mm 761 W/m2
12:19 68 °F /  20 °C 60.8 °F /  16 °C 30.13in /  1020.2hPa West 8.2mph /  13.2km/h 13mph /  20.9km/h 75.4% 0.00in /  0mm 619 W/m2
12:24 67.5 °F /  19.7 °C 60.5 °F /  15.8 °C 30.13in /  1020.2hPa WNW 6mph /  9.7km/h 13mph /  20.9km/h 76% 0.00in /  0mm 353 W/m2
12:29 66.9 °F /  19.4 °C 60.2 °F /  15.7 °C 30.13in /  1020.2hPa WNW 9.6mph /  15.4km/h 15mph /  24.1km/h 76.6% 0.00in /  0mm 795 W/m2
12:34 67.3 °F /  19.6 °C 60.7 °F /  15.9 °C 30.13in /  1020.2hPa WNW 7.4mph /  11.9km/h 14mph /  22.5km/h 77% 0.00in /  0mm 868 W/m2
12:39 67.8 °F /  19.9 °C 60.7 °F /  15.9 °C 30.13in /  1020.2hPa West 11.2mph /  18km/h 19mph /  30.6km/h 75.6% 0.00in /  0mm 918 W/m2
12:44 68.1 °F /  20.1 °C 60.5 °F /  15.8 °C 30.13in /  1020.2hPa West 10.7mph /  17.2km/h 16mph /  25.7km/h 74.4% 0.00in /  0mm 918 W/m2
12:49 68.5 °F /  20.3 °C 60.9 °F /  16.1 °C 30.13in /  1020.2hPa NW 9.3mph /  15km/h 17mph /  27.4km/h 74.3% 0.00in /  0mm 919 W/m2
12:54 68.2 °F /  20.1 °C 60.8 °F /  16 °C 30.13in /  1020.2hPa WNW 6.4mph /  10.3km/h 18mph /  29km/h 75.2% 0.00in /  0mm 847 W/m2
12:59 68.2 °F /  20.1 °C 61 °F /  16.1 °C 30.13in /  1020.2hPa WNW 10.1mph /  16.3km/h 18mph /  29km/h 75.6% 0.00in /  0mm 847 W/m2
13:04 67.6 °F /  19.8 °C 60.5 °F /  15.8 °C 30.13in /  1020.2hPa WNW 10.7mph /  17.2km/h 17mph /  27.4km/h 75.8% 0.00in /  0mm 835 W/m2
13:09 67.7 °F /  19.8 °C 60.7 °F /  15.9 °C 30.13in /  1020.2hPa NW 8.8mph /  14.2km/h 15mph /  24.1km/h 75.8% 0.00in /  0mm 854 W/m2
13:14 67.7 °F /  19.8 °C 60.6 °F /  15.9 °C 30.13in /  1020.2hPa West 9.6mph /  15.4km/h 16mph /  25.7km/h 75.6% 0.00in /  0mm 823 W/m2
13:19 67.7 °F /  19.8 °C 60.4 °F /  15.8 °C 30.13in /  1020.2hPa West 10.8mph /  17.4km/h 17mph /  27.4km/h 75.2% 0.00in /  0mm 860 W/m2
13:24 67.5 °F /  19.7 °C 60.2 °F /  15.7 °C 30.13in /  1020.2hPa WNW 10.9mph /  17.5km/h 15mph /  24.1km/h 75% 0.00in /  0mm 1023 W/m2
13:29 67.5 °F /  19.7 °C 60 °F /  15.6 °C 30.13in /  1020.2hPa WNW 9.2mph /  14.8km/h 16mph /  25.7km/h 74.8% 0.00in /  0mm 1023 W/m2
13:34 68.4 °F /  20.2 °C 60.5 °F /  15.8 °C 30.13in /  1020.2hPa West 8.4mph /  13.5km/h 14mph /  22.5km/h 73.6% 0.00in /  0mm 905 W/m2
13:39 68.5 °F /  20.3 °C 60.3 °F /  15.7 °C 30.13in /  1020.2hPa West 6.1mph /  9.8km/h 14mph /  22.5km/h 72.6% 0.00in /  0mm 923 W/m2
13:44 69.1 °F /  20.6 °C 60.8 °F /  16 °C 30.13in /  1020.2hPa West 8.5mph /  13.7km/h 13mph /  20.9km/h 72.6% 0.00in /  0mm 919 W/m2
13:48 68.9 °F /  20.5 °C 60.1 °F /  15.6 °C 30.13in /  1020.2hPa West 10.1mph /  16.3km/h 14mph /  22.5km/h 71.5% 0.00in /  0mm 896 W/m2
13:54 69 °F /  20.6 °C 60.2 °F /  15.7 °C 30.13in /  1020.2hPa WNW 9.2mph /  14.8km/h 14mph /  22.5km/h 71.4% 0.00in /  0mm 893 W/m2
13:59 68.5 °F /  20.3 °C 59.8 °F /  15.4 °C 30.13in /  1020.2hPa WNW 9.1mph /  14.6km/h 13mph /  20.9km/h 71.4% 0.00in /  0mm 1049 W/m2
14:04 69.1 °F /  20.6 °C 60.1 °F /  15.6 °C 30.13in /  1020.2hPa NW 8mph /  12.9km/h 14mph /  22.5km/h 71% 0.00in /  0mm 1049 W/m2
14:09 68.8 °F /  20.4 °C 59.7 °F /  15.4 °C 30.13in /  1020.2hPa WNW 7.4mph /  11.9km/h 15mph /  24.1km/h 70.8% 0.00in /  0mm 1028 W/m2
14:13 69.3 °F /  20.7 °C 60.2 °F /  15.7 °C 30.13in /  1020.2hPa WNW 5.5mph /  8.9km/h 15mph /  24.1km/h 70.8% 0.00in /  0mm 1007 W/m2
14:19 68.9 °F /  20.5 °C 59.9 °F /  15.5 °C 30.13in /  1020.2hPa WNW 7.2mph /  11.6km/h 14mph /  22.5km/h 71% 0.00in /  0mm 947 W/m2
14:24 68.9 °F /  20.5 °C 59.9 °F /  15.5 °C 30.13in /  1020.2hPa West 6.6mph /  10.6km/h 13mph /  20.9km/h 71% 0.00in /  0mm 926 W/m2
14:29 69.4 °F /  20.8 °C 60.2 °F /  15.7 °C 30.13in /  1020.2hPa WNW 10.4mph /  16.7km/h 16mph /  25.7km/h 70.4% 0.00in /  0mm 912 W/m2
14:34 69.3 °F /  20.7 °C 60.1 °F /  15.6 °C 30.13in /  1020.2hPa West 7.8mph /  12.6km/h 13mph /  20.9km/h 70.6% 0.00in /  0mm 425 W/m2
14:39 69.4 °F /  20.8 °C 60.5 °F /  15.8 °C 30.13in /  1020.2hPa West 8.6mph /  13.8km/h 15mph /  24.1km/h 71.2% 0.00in /  0mm 939 W/m2
14:44 70 °F /  21.1 °C 60.9 °F /  16.1 °C 30.13in /  1020.2hPa WNW 7.4mph /  11.9km/h 15mph /  24.1km/h 70.8% 0.00in /  0mm 988 W/m2
14:49 70 °F /  21.1 °C 60.6 °F /  15.9 °C 30.13in /  1020.2hPa West 10.2mph /  16.4km/h 17mph /  27.4km/h 70.2% 0.00in /  0mm 461 W/m2
14:54 69.9 °F /  21.1 °C 60.7 °F /  15.9 °C 30.13in /  1020.2hPa West 7.2mph /  11.6km/h 12mph /  19.3km/h 70.6% 0.00in /  0mm 937 W/m2
14:59 70.2 °F /  21.2 °C 61.2 °F /  16.2 °C 30.13in /  1020.2hPa WNW 5.6mph /  9km/h 14mph /  22.5km/h 71% 0.00in /  0mm 900 W/m2
15:04 70.1 °F /  21.2 °C 61.1 °F /  16.2 °C 30.13in /  1020.2hPa West 9.1mph /  14.6km/h 16mph /  25.7km/h 71% 0.00in /  0mm 1005 W/m2
15:08 70.2 °F /  21.2 °C 61 °F /  16.1 °C 30.13in /  1020.2hPa West 9.8mph /  15.8km/h 16mph /  25.7km/h 70.5% 0.00in /  0mm 1005 W/m2
15:14 69.8 °F /  21 °C 60.9 °F /  16.1 °C 30.13in /  1020.2hPa West 10.8mph /  17.4km/h 15mph /  24.1km/h 71.4% 0.00in /  0mm 418 W/m2
15:19 69.3 °F /  20.7 °C 60.7 °F /  15.9 °C 30.13in /  1020.2hPa WNW 10.3mph /  16.6km/h 21mph /  33.8km/h 72% 0.00in /  0mm 441 W/m2
15:24 69 °F /  20.6 °C 60.8 °F /  16 °C 30.13in /  1020.2hPa West 9mph /  14.5km/h 15mph /  24.1km/h 72.8% 0.00in /  0mm 606 W/m2
15:29 69.1 °F /  20.6 °C 61 °F /  16.1 °C 30.13in /  1020.2hPa WSW 9.4mph /  15.1km/h 16mph /  25.7km/h 73% 0.00in /  0mm 425 W/m2
15:34 69.1 °F /  20.6 °C 61.1 °F /  16.2 °C 30.13in /  1020.2hPa West 9.6mph /  15.4km/h 15mph /  24.1km/h 73.4% 0.00in /  0mm 752 W/m2
15:39 68.6 °F /  20.3 °C 61.1 °F /  16.2 °C 30.14in /  1020.5hPa West 7.3mph /  11.7km/h 14mph /  22.5km/h 74.4% 0.00in /  0mm 279 W/m2
15:44 68.6 °F /  20.3 °C 61.3 °F /  16.3 °C 30.14in /  1020.5hPa WNW 9.2mph /  14.8km/h 13mph /  20.9km/h 75% 0.00in /  0mm 406 W/m2
15:49 68.5 °F /  20.3 °C 61.4 °F /  16.3 °C 30.14in /  1020.5hPa WNW 5.7mph /  9.2km/h 13mph /  20.9km/h 75.6% 0.00in /  0mm 345 W/m2
15:54 68.3 °F /  20.2 °C 61.1 °F /  16.2 °C 30.14in /  1020.5hPa WNW 6.6mph /  10.6km/h 15mph /  24.1km/h 75.4% 0.00in /  0mm 381 W/m2
15:59 67.9 °F /  19.9 °C 61 °F /  16.1 °C 30.14in /  1020.5hPa WNW 6.6mph /  10.6km/h 13mph /  20.9km/h 76.4% 0.00in /  0mm 589 W/m2
16:04 68.3 °F /  20.2 °C 61.4 °F /  16.3 °C 30.14in /  1020.5hPa WNW 8.6mph /  13.8km/h 15mph /  24.1km/h 76.4% 0.00in /  0mm 506 W/m2
16:09 67.7 °F /  19.8 °C 60.8 °F /  16 °C 30.14in /  1020.5hPa WNW 9.1mph /  14.6km/h 16mph /  25.7km/h 76.4% 0.00in /  0mm 404 W/m2
16:14 67.3 °F /  19.6 °C 60.6 °F /  15.9 °C 30.14in /  1020.5hPa WNW 9.6mph /  15.4km/h 15mph /  24.1km/h 77% 0.00in /  0mm 420 W/m2
16:19 66.9 °F /  19.4 °C 60.4 °F /  15.8 °C 30.14in /  1020.5hPa WNW 8.8mph /  14.2km/h 18mph /  29km/h 77.2% 0.00in /  0mm 269 W/m2
16:24 66.7 °F /  19.3 °C 60.5 °F /  15.8 °C 30.14in /  1020.5hPa WNW 7.7mph /  12.4km/h 15mph /  24.1km/h 77.8% 0.00in /  0mm 308 W/m2
16:28 66.6 °F /  19.2 °C 60.2 °F /  15.7 °C 30.14in /  1020.5hPa West 12.6mph /  20.3km/h 17mph /  27.4km/h 77.3% 0.00in /  0mm 311 W/m2
16:34 66.5 °F /  19.2 °C 60 °F /  15.6 °C 30.14in /  1020.5hPa WNW 12mph /  19.3km/h 19mph /  30.6km/h 77% 0.00in /  0mm 281 W/m2
16:39 66.1 °F /  18.9 °C 59.8 °F /  15.4 °C 30.14in /  1020.5hPa WNW 6.9mph /  11.1km/h 17mph /  27.4km/h 77.4% 0.00in /  0mm 297 W/m2
16:44 66.1 °F /  18.9 °C 60 °F /  15.6 °C 30.14in /  1020.5hPa West 7.5mph /  12.1km/h 13mph /  20.9km/h 78% 0.00in /  0mm 302 W/m2
16:49 66.4 °F /  19.1 °C 60.3 °F /  15.7 °C 30.15in /  1020.9hPa NW 7.8mph /  12.6km/h 18mph /  29km/h 78% 0.00in /  0mm 287 W/m2
16:54 66 °F /  18.9 °C 59.7 °F /  15.4 °C 30.14in /  1020.5hPa WNW 11.7mph /  18.8km/h 18mph /  29km/h 77.6% 0.00in /  0mm 290 W/m2
16:59 65.7 °F /  18.7 °C 59.5 °F /  15.3 °C 30.15in /  1020.9hPa WNW 7.2mph /  11.6km/h 17mph /  27.4km/h 78% 0.00in /  0mm 276 W/m2
17:04 65.5 °F /  18.6 °C 59.4 °F /  15.2 °C 30.14in /  1020.5hPa WNW 5.7mph /  9.2km/h 16mph /  25.7km/h 78% 0.00in /  0mm 246 W/m2
17:09 65.3 °F /  18.5 °C 59.3 °F /  15.2 °C 30.14in /  1020.5hPa WNW 8.1mph /  13km/h 14mph /  22.5km/h 78.3% 0.00in /  0mm 227 W/m2
17:14 65.1 °F /  18.4 °C 59.4 °F /  15.2 °C 30.14in /  1020.5hPa West 4.5mph /  7.2km/h 14mph /  22.5km/h 79% 0.00in /  0mm 174 W/m2
17:19 65.2 °F /  18.4 °C 59.4 °F /  15.2 °C 30.14in /  1020.5hPa NW 6.2mph /  10km/h 10mph /  16.1km/h 79% 0.00in /  0mm 155 W/m2
17:24 65 °F /  18.3 °C 59.3 °F /  15.2 °C 30.14in /  1020.5hPa West 5.6mph /  9km/h 12mph /  19.3km/h 79% 0.00in /  0mm 174 W/m2
17:29 64.7 °F /  18.2 °C 59.1 °F /  15.1 °C 30.14in /  1020.5hPa WNW 8mph /  12.9km/h 13mph /  20.9km/h 79.4% 0.00in /  0mm 176 W/m2
17:34 64.6 °F /  18.1 °C 59.2 °F /  15.1 °C 30.14in /  1020.5hPa WNW 7.2mph /  11.6km/h 16mph /  25.7km/h 80% 0.00in /  0mm 172 W/m2
17:39 64.6 °F /  18.1 °C 59.2 °F /  15.1 °C 30.14in /  1020.5hPa WNW 9.3mph /  15km/h 13mph /  20.9km/h 80% 0.00in /  0mm 158 W/m2
17:44 64.6 °F /  18.1 °C 59.4 °F /  15.2 °C 30.14in /  1020.5hPa West 4.9mph /  7.9km/h 13mph /  20.9km/h 80.6% 0.00in /  0mm 142 W/m2
17:49 64.7 °F /  18.2 °C 59.6 °F /  15.3 °C 30.14in /  1020.5hPa West 7mph /  11.3km/h 13mph /  20.9km/h 81% 0.00in /  0mm 141 W/m2
17:54 64.2 °F /  17.9 °C 59.2 °F /  15.1 °C 30.15in /  1020.9hPa WNW 8.5mph /  13.7km/h 16mph /  25.7km/h 81% 0.00in /  0mm 160 W/m2
17:59 64 °F /  17.8 °C 59.2 °F /  15.1 °C 30.15in /  1020.9hPa WNW 8mph /  12.9km/h 15mph /  24.1km/h 81.4% 0.00in /  0mm 158 W/m2
18:04 64 °F /  17.8 °C 59.4 °F /  15.2 °C 30.15in /  1020.9hPa WNW 7mph /  11.3km/h 13mph /  20.9km/h 82% 0.00in /  0mm 141 W/m2
18:09 63.8 °F /  17.7 °C 59.1 °F /  15.1 °C 30.15in /  1020.9hPa West 7.8mph /  12.6km/h 13mph /  20.9km/h 82% 0.00in /  0mm 141 W/m2
18:14 63.7 °F /  17.6 °C 59 °F /  15 °C 30.15in /  1020.9hPa West 6.6mph /  10.6km/h 12mph /  19.3km/h 82% 0.00in /  0mm 163 W/m2
18:19 63.7 °F /  17.6 °C 59 °F /  15 °C 30.14in /  1020.5hPa WNW 6mph /  9.7km/h 10mph /  16.1km/h 82% 0.00in /  0mm 167 W/m2
18:24 63.8 °F /  17.7 °C 59.1 °F /  15.1 °C 30.14in /  1020.5hPa WNW 5.1mph /  8.2km/h 9mph /  14.5km/h 82% 0.00in /  0mm 146 W/m2
18:29 63.7 °F /  17.6 °C 59 °F /  15 °C 30.14in /  1020.5hPa WNW 5mph /  8km/h 11mph /  17.7km/h 82% 0.00in /  0mm 142 W/m2
18:34 63.7 °F /  17.6 °C 59 °F /  15 °C 30.14in /  1020.5hPa WNW 8.2mph /  13.2km/h 11mph /  17.7km/h 82% 0.00in /  0mm 114 W/m2
18:39 63.5 °F /  17.5 °C 58.8 °F /  14.9 °C 30.14in /  1020.5hPa WNW 5.3mph /  8.5km/h 11mph /  17.7km/h 82% 0.00in /  0mm 127 W/m2
18:44 63.5 °F /  17.5 °C 59.2 °F /  15.1 °C 30.14in /  1020.5hPa WNW 8.5mph /  13.7km/h 11mph /  17.7km/h 83% 0.00in /  0mm 153 W/m2
18:49 63.2 °F /  17.3 °C 58.9 °F /  14.9 °C 30.14in /  1020.5hPa WNW 7.6mph /  12.2km/h 14mph /  22.5km/h 83% 0.00in /  0mm 162 W/m2
18:54 63.1 °F /  17.3 °C 58.8 °F /  14.9 °C 30.14in /  1020.5hPa West 8mph /  12.9km/h 12mph /  19.3km/h 83% 0.00in /  0mm 158 W/m2
18:59 63 °F /  17.2 °C 58.7 °F /  14.8 °C 30.14in /  1020.5hPa WNW 6mph /  9.7km/h 13mph /  20.9km/h 83% 0.00in /  0mm 137 W/m2
19:04 62.8 °F /  17.1 °C 58.5 °F /  14.7 °C 30.14in /  1020.5hPa West 7.7mph /  12.4km/h 12mph /  19.3km/h 83% 0.00in /  0mm 97 W/m2
19:09 62.8 °F /  17.1 °C 58.5 °F /  14.7 °C 30.14in /  1020.5hPa West 5.2mph /  8.4km/h 9mph /  14.5km/h 83% 0.00in /  0mm 83 W/m2
19:14 62.8 °F /  17.1 °C 58.8 °F /  14.9 °C 30.14in /  1020.5hPa WSW 5.1mph /  8.2km/h 9mph /  14.5km/h 84% 0.00in /  0mm 79 W/m2
19:19 62.6 °F /  17 °C 58.7 °F /  14.8 °C 30.14in /  1020.5hPa West 6.9mph /  11.1km/h 12mph /  19.3km/h 84% 0.00in /  0mm 63 W/m2
19:24 62.3 °F /  16.8 °C 58.4 °F /  14.7 °C 30.14in /  1020.5hPa West 6.4mph /  10.3km/h 10mph /  16.1km/h 84% 0.00in /  0mm 69 W/m2
19:29 62.1 °F /  16.7 °C 58.2 °F /  14.6 °C 30.15in /  1020.9hPa WNW 8.4mph /  13.5km/h 13mph /  20.9km/h 84% 0.00in /  0mm 63 W/m2
19:34 62.1 °F /  16.7 °C 58.1 °F /  14.5 °C 30.15in /  1020.9hPa West 4mph /  6.4km/h 11mph /  17.7km/h 84% 0.00in /  0mm 49 W/m2
19:39 62.1 °F /  16.7 °C 58.2 °F /  14.6 °C 30.15in /  1020.9hPa WNW 7.1mph /  11.4km/h 11mph /  17.7km/h 84.2% 0.00in /  0mm 58 W/m2
19:44 62.1 °F /  16.7 °C 58.1 °F /  14.5 °C 30.15in /  1020.9hPa WNW 7.8mph /  12.6km/h 10mph /  16.1km/h 84% 0.00in /  0mm 58 W/m2
19:49 62.1 °F /  16.7 °C 58.1 °F /  14.5 °C 30.15in /  1020.9hPa WNW 5.2mph /  8.4km/h 10mph /  16.1km/h 84% 0.00in /  0mm 120 W/m2
19:54 62.2 °F /  16.8 °C 58.2 °F /  14.6 °C 30.15in /  1020.9hPa WNW 3.8mph /  6.1km/h 6mph /  9.7km/h 84% 0.00in /  0mm 86 W/m2
19:59 62.2 °F /  16.8 °C 58.3 °F /  14.6 °C 30.15in /  1020.9hPa WNW 8.4mph /  13.5km/h 15mph /  24.1km/h 84% 0.00in /  0mm 60 W/m2
20:04 62.2 °F /  16.8 °C 58.3 °F /  14.6 °C 30.15in /  1020.9hPa WNW 5.8mph /  9.3km/h 13mph /  20.9km/h 84% 0.00in /  0mm 60 W/m2
20:09 62.2 °F /  16.8 °C 58.2 °F /  14.6 °C 30.15in /  1020.9hPa WNW 6.1mph /  9.8km/h 11mph /  17.7km/h 84% 0.00in /  0mm 60 W/m2
20:14 62.1 °F /  16.7 °C 58.1 °F /  14.5 °C 30.15in /  1020.9hPa WNW 6.5mph /  10.5km/h 11mph /  17.7km/h 84% 0.00in /  0mm 42 W/m2
20:19 61.9 °F /  16.6 °C 57.9 °F /  14.4 °C 30.15in /  1020.9hPa West 6.2mph /  10km/h 12mph /  19.3km/h 84% 0.00in /  0mm 39 W/m2
20:24 61.9 °F /  16.6 °C 57.9 °F /  14.4 °C 30.15in /  1020.9hPa West 6.4mph /  10.3km/h 11mph /  17.7km/h 84% 0.00in /  0mm 30 W/m2
20:29 61.7 °F /  16.5 °C 58.1 °F /  14.5 °C 30.15in /  1020.9hPa WNW 9mph /  14.5km/h 15mph /  24.1km/h 85% 0.00in /  0mm 25 W/m2
20:34 61.5 °F /  16.4 °C 57.9 °F /  14.4 °C 30.16in /  1021.2hPa WNW 5.1mph /  8.2km/h 13mph /  20.9km/h 85% 0.00in /  0mm 14 W/m2
20:39 61.5 °F /  16.4 °C 57.9 °F /  14.4 °C 30.16in /  1021.2hPa WNW 6.3mph /  10.1km/h 13mph /  20.9km/h 85% 0.00in /  0mm 9 W/m2
20:44 61.5 °F /  16.4 °C 57.9 °F /  14.4 °C 30.16in /  1021.2hPa WNW 6.8mph /  10.9km/h 12mph /  19.3km/h 85% 0.00in /  0mm 0 W/m2
20:49 61.3 °F /  16.3 °C 57.7 °F /  14.3 °C 30.16in /  1021.2hPa WNW 5.6mph /  9km/h 13mph /  20.9km/h 85% 0.00in /  0mm 0 W/m2
20:54 61.2 °F /  16.2 °C 57.7 °F /  14.3 °C 30.15in /  1020.9hPa West 5.9mph /  9.5km/h 12mph /  19.3km/h 86% 0.00in /  0mm 0 W/m2
20:59 61.2 °F /  16.2 °C 57.7 °F /  14.3 °C 30.15in /  1020.9hPa West 6.5mph /  10.5km/h 11mph /  17.7km/h 86% 0.00in /  0mm 0 W/m2
21:04 61.2 °F /  16.2 °C 57.7 °F /  14.3 °C 30.16in /  1021.2hPa WNW 6.4mph /  10.3km/h 12mph /  19.3km/h 86% 0.00in /  0mm 0 W/m2
21:08 61 °F /  16.1 °C 57.6 °F /  14.2 °C 30.16in /  1021.2hPa WNW 5.5mph /  8.9km/h 13mph /  20.9km/h 86% 0.00in /  0mm 0 W/m2
21:14 60.8 °F /  16 °C 57.5 °F /  14.2 °C 30.16in /  1021.2hPa WNW 6.4mph /  10.3km/h 16mph /  25.7km/h 86% 0.00in /  0mm 0 W/m2
21:19 60.6 °F /  15.9 °C 57.4 °F /  14.1 °C 30.16in /  1021.2hPa WNW 5.2mph /  8.4km/h 13mph /  20.9km/h 86% 0.00in /  0mm 0 W/m2
21:24 60.4 °F /  15.8 °C 57.3 °F /  14.1 °C 30.16in /  1021.2hPa WNW 6.6mph /  10.6km/h 13mph /  20.9km/h 86.4% 0.00in /  0mm 0 W/m2
21:29 60.4 °F /  15.8 °C 57.4 °F /  14.1 °C 30.16in /  1021.2hPa WNW 4.4mph /  7.1km/h 10mph /  16.1km/h 86.8% 0.00in /  0mm 0 W/m2
21:34 60.3 °F /  15.7 °C 57.2 °F /  14 °C 30.16in /  1021.2hPa NW 5.8mph /  9.3km/h 11mph /  17.7km/h 87% 0.00in /  0mm 0 W/m2
21:39 60.2 °F /  15.7 °C 57.1 °F /  13.9 °C 30.16in /  1021.2hPa WNW 3.5mph /  5.6km/h 11mph /  17.7km/h 87% 0.00in /  0mm 0 W/m2
21:44 60.1 °F /  15.6 °C 57 °F /  13.9 °C 30.16in /  1021.2hPa WNW 4.5mph /  7.2km/h 11mph /  17.7km/h 87% 0.00in /  0mm 0 W/m2
21:49 60.1 °F /  15.6 °C 57 °F /  13.9 °C 30.16in /  1021.2hPa WNW 4.4mph /  7.1km/h 8mph /  12.9km/h 87% 0.00in /  0mm 0 W/m2
21:54 59.9 °F /  15.5 °C 56.8 °F /  13.8 °C 30.16in /  1021.2hPa West 6.6mph /  10.6km/h 11mph /  17.7km/h 87% 0.00in /  0mm 0 W/m2
21:59 59.8 °F /  15.4 °C 56.7 °F /  13.7 °C 30.17in /  1021.6hPa West 5.2mph /  8.4km/h 11mph /  17.7km/h 87% 0.00in /  0mm 0 W/m2
22:03 59.7 °F /  15.4 °C 56.7 °F /  13.7 °C 30.17in /  1021.6hPa WNW 5.7mph /  9.2km/h 10mph /  16.1km/h 87% 0.00in /  0mm 0 W/m2
22:09 59.7 °F /  15.4 °C 56.8 °F /  13.8 °C 30.17in /  1021.6hPa West 5mph /  8km/h 9mph /  14.5km/h 87.2% 0.00in /  0mm 0 W/m2
22:14 59.7 °F /  15.4 °C 57 °F /  13.9 °C 30.17in /  1021.6hPa West 3.2mph /  5.1km/h 8mph /  12.9km/h 88% 0.00in /  0mm 0 W/m2
22:19 59.7 °F /  15.4 °C 57 °F /  13.9 °C 30.17in /  1021.6hPa West 3.5mph /  5.6km/h 6mph /  9.7km/h 88% 0.00in /  0mm 0 W/m2
22:24 59.7 °F /  15.4 °C 57 °F /  13.9 °C 30.17in /  1021.6hPa West 3.7mph /  6km/h 7mph /  11.3km/h 88% 0.00in /  0mm 0 W/m2
22:29 59.7 °F /  15.4 °C 56.8 °F /  13.8 °C 30.17in /  1021.6hPa West 3.6mph /  5.8km/h 7mph /  11.3km/h 87.4% 0.00in /  0mm 0 W/m2
22:34 59.7 °F /  15.4 °C 56.7 °F /  13.7 °C 30.17in /  1021.6hPa West 5.6mph /  9km/h 9mph /  14.5km/h 87% 0.00in /  0mm 0 W/m2
22:39 59.5 °F /  15.3 °C 56.5 °F /  13.6 °C 30.17in /  1021.6hPa West 4.5mph /  7.2km/h 11mph /  17.7km/h 87% 0.00in /  0mm 0 W/m2
22:44 59.5 °F /  15.3 °C 56.5 °F /  13.6 °C 30.17in /  1021.6hPa WNW 6.2mph /  10km/h 9mph /  14.5km/h 87% 0.00in /  0mm 0 W/m2
22:49 59.5 °F /  15.3 °C 56.5 °F /  13.6 °C 30.17in /  1021.6hPa WNW 4.6mph /  7.4km/h 9mph /  14.5km/h 87% 0.00in /  0mm 0 W/m2
22:54 59.5 °F /  15.3 °C 56.5 °F /  13.6 °C 30.17in /  1021.6hPa West 5mph /  8km/h 7mph /  11.3km/h 87% 0.00in /  0mm 0 W/m2
22:59 59.5 °F /  15.3 °C 56.5 °F /  13.6 °C 30.17in /  1021.6hPa West 3.3mph /  5.3km/h 8mph /  12.9km/h 87% 0.00in /  0mm 0 W/m2
23:04 59.5 °F /  15.3 °C 56.5 °F /  13.6 °C 30.17in /  1021.6hPa West 4mph /  6.4km/h 7mph /  11.3km/h 87% 0.00in /  0mm 0 W/m2
23:09 59.4 °F /  15.2 °C 56.7 °F /  13.7 °C 30.17in /  1021.6hPa WNW 3.7mph /  6km/h 10mph /  16.1km/h 87.8% 0.00in /  0mm 0 W/m2
23:14 59.3 °F /  15.2 °C 56.6 °F /  13.7 °C 30.17in /  1021.6hPa WNW 5.2mph /  8.4km/h 9mph /  14.5km/h 88% 0.00in /  0mm 0 W/m2
23:19 59.2 °F /  15.1 °C 56.5 °F /  13.6 °C 30.17in /  1021.6hPa WNW 2.8mph /  4.5km/h 10mph /  16.1km/h 88% 0.00in /  0mm 0 W/m2
23:24 59 °F /  15 °C 56.3 °F /  13.5 °C 30.18in /  1021.9hPa WNW 4.7mph /  7.6km/h 10mph /  16.1km/h 88% 0.00in /  0mm 0 W/m2
23:29 58.8 °F /  14.9 °C 56.1 °F /  13.4 °C 30.18in /  1021.9hPa WNW 4mph /  6.4km/h 8mph /  12.9km/h 88% 0.00in /  0mm 0 W/m2
23:34 58.8 °F /  14.9 °C 56.1 °F /  13.4 °C 30.18in /  1021.9hPa WNW 2.4mph /  3.9km/h 8mph /  12.9km/h 88% 0.00in /  0mm 0 W/m2
23:39 58.8 °F /  14.9 °C 56 °F /  13.3 °C 30.18in /  1021.9hPa WNW 3.7mph /  6km/h 7mph /  11.3km/h 87.8% 0.00in /  0mm 0 W/m2
23:44 58.6 °F /  14.8 °C 55.6 °F /  13.1 °C 30.18in /  1021.9hPa West 3.5mph /  5.6km/h 7mph /  11.3km/h 87% 0.00in /  0mm 0 W/m2
23:49 58.6 °F /  14.8 °C 55.7 °F /  13.2 °C 30.18in /  1021.9hPa WNW 4.9mph /  7.9km/h 10mph /  16.1km/h 87.2% 0.00in /  0mm 0 W/m2
23:54 58.6 °F /  14.8 °C 55.8 °F /  13.2 °C 30.18in /  1021.9hPa WNW 3.6mph /  5.8km/h 6mph /  9.7km/h 87.8% 0.00in /  0mm 0 W/m2
23:59 58.6 °F /  14.8 °C 55.9 °F /  13.3 °C 30.18in /  1021.9hPa WNW 2mph /  3.2km/h 6mph /  9.7km/h 88% 0.00in /  0mm 0 W/m2
Bath Spa Weather
Compliments of Weather Underground - 2 mb